sensor_id;sensor_type;location;lat;lon;timestamp;temperature;humidity
59067;DHT22;44854;50.838;4.438;2022-12-07T06:21:39;6.10;99.90
59067;DHT22;44854;50.838;4.438;2022-12-07T06:24:05;6.10;99.90
59067;DHT22;44854;50.838;4.438;2022-12-07T06:26:31;6.10;99.90
59067;DHT22;44854;50.838;4.438;2022-12-07T06:28:57;6.10;99.90
59067;DHT22;44854;50.838;4.438;2022-12-07T06:31:22;6.10;99.90
59067;DHT22;44854;50.838;4.438;2022-12-07T06:33:48;6.10;99.90
59067;DHT22;44854;50.838;4.438;2022-12-07T06:36:13;5.90;99.90
59067;DHT22;44854;50.838;4.438;2022-12-07T06:38:40;6.00;99.90
59067;DHT22;44854;50.838;4.438;2022-12-07T06:41:06;5.90;99.90
59067;DHT22;44854;50.838;4.438;2022-12-07T06:43:32;6.00;99.90
59067;DHT22;44854;50.838;4.438;2022-12-07T06:45:57;6.10;99.90
59067;DHT22;44854;50.838;4.438;2022-12-07T06:48:23;6.00;99.90
59067;DHT22;44854;50.838;4.438;2022-12-07T06:50:51;6.10;99.90
59067;DHT22;44854;50.838;4.438;2022-12-07T06:53:17;6.20;99.90
59067;DHT22;44854;50.838;4.438;2022-12-07T06:55:42;6.20;99.90
59067;DHT22;44854;50.838;4.438;2022-12-07T06:58:08;6.20;99.90
59067;DHT22;44854;50.838;4.438;2022-12-07T07:00:33;6.30;99.90
59067;DHT22;44854;50.838;4.438;2022-12-07T07:03:00;6.30;99.90
59067;DHT22;44854;50.838;4.438;2022-12-07T07:05:26;6.30;99.90
59067;DHT22;44854;50.838;4.438;2022-12-07T07:07:52;6.30;99.90
59067;DHT22;44854;50.838;4.438;2022-12-07T07:10:17;6.30;99.90
59067;DHT22;44854;50.838;4.438;2022-12-07T07:12:43;6.30;99.90
59067;DHT22;44854;50.838;4.438;2022-12-07T07:15:08;6.40;99.90
59067;DHT22;44854;50.838;4.438;2022-12-07T07:17:35;6.30;99.90
59067;DHT22;44854;50.838;4.438;2022-12-07T07:20:00;6.40;99.90
59067;DHT22;44854;50.838;4.438;2022-12-07T07:22:26;6.40;99.90
59067;DHT22;44854;50.838;4.438;2022-12-07T07:24:51;6.50;99.90
59067;DHT22;44854;50.838;4.438;2022-12-07T07:27:17;6.40;99.90
59067;DHT22;44854;50.838;4.438;2022-12-07T07:29:42;6.30;99.90
59067;DHT22;44854;50.838;4.438;2022-12-07T07:32:08;6.30;99.90
59067;DHT22;44854;50.838;4.438;2022-12-07T07:34:34;6.20;99.90
59067;DHT22;44854;50.838;4.438;2022-12-07T07:36:59;6.20;99.90
59067;DHT22;44854;50.838;4.438;2022-12-07T07:39:25;6.20;99.90
59067;DHT22;44854;50.838;4.438;2022-12-07T07:41:51;6.10;99.90
59067;DHT22;44854;50.838;4.438;2022-12-07T07:44:16;6.10;99.90
59067;DHT22;44854;50.838;4.438;2022-12-07T07:46:42;6.00;99.90
59067;DHT22;44854;50.838;4.438;2022-12-07T07:49:08;6.00;99.90
59067;DHT22;44854;50.838;4.438;2022-12-07T07:51:35;5.80;99.90
59067;DHT22;44854;50.838;4.438;2022-12-07T07:54:00;5.70;99.90
59067;DHT22;44854;50.838;4.438;2022-12-07T07:56:26;5.80;99.90
59067;DHT22;44854;50.838;4.438;2022-12-07T07:58:52;5.90;99.90
59067;DHT22;44854;50.838;4.438;2022-12-07T08:01:17;5.80;99.90
59067;DHT22;44854;50.838;4.438;2022-12-07T08:03:45;5.80;99.90
59067;DHT22;44854;50.838;4.438;2022-12-07T08:06:11;5.90;99.90
59067;DHT22;44854;50.838;4.438;2022-12-07T08:08:37;5.80;99.90
59067;DHT22;44854;50.838;4.438;2022-12-07T08:11:05;5.90;99.90
59067;DHT22;44854;50.838;4.438;2022-12-07T08:13:31;6.00;99.90
59067;DHT22;44854;50.838;4.438;2022-12-07T08:15:56;5.90;99.90
59067;DHT22;44854;50.838;4.438;2022-12-07T08:18:22;5.90;99.90
59067;DHT22;44854;50.838;4.438;2022-12-07T08:20:48;5.90;99.90
59067;DHT22;44854;50.838;4.438;2022-12-07T08:23:13;5.90;99.90
59067;DHT22;44854;50.838;4.438;2022-12-07T08:25:39;5.80;99.90
59067;DHT22;44854;50.838;4.438;2022-12-07T08:28:04;5.80;99.90
59067;DHT22;44854;50.838;4.438;2022-12-07T08:30:30;5.80;99.90
59067;DHT22;44854;50.838;4.438;2022-12-07T08:32:56;5.90;99.90
59067;DHT22;44854;50.838;4.438;2022-12-07T08:35:21;5.90;99.90
59067;DHT22;44854;50.838;4.438;2022-12-07T08:37:47;5.80;99.90
59067;DHT22;44854;50.838;4.438;2022-12-07T08:40:13;5.90;99.90
59067;DHT22;44854;50.838;4.438;2022-12-07T08:42:53;5.80;99.90
59067;DHT22;44854;50.838;4.438;2022-12-07T08:45:19;5.90;99.90
59067;DHT22;44854;50.838;4.438;2022-12-07T08:47:55;5.90;99.90
59067;DHT22;44854;50.838;4.438;2022-12-07T08:50:22;6.00;99.90
59067;DHT22;44854;50.838;4.438;2022-12-07T08:52:49;6.00;99.90
59067;DHT22;44854;50.838;4.438;2022-12-07T08:55:16;6.10;99.90
59067;DHT22;44854;50.838;4.438;2022-12-07T08:57:41;6.20;99.90
59067;DHT22;44854;50.838;4.438;2022-12-07T09:00:08;6.30;99.90
59067;DHT22;44854;50.838;4.438;2022-12-07T09:02:34;6.40;99.90
59067;DHT22;44854;50.838;4.438;2022-12-07T09:05:00;6.30;99.90
59067;DHT22;44854;50.838;4.438;2022-12-07T09:07:25;6.50;99.90
59067;DHT22;44854;50.838;4.438;2022-12-07T09:09:51;6.50;99.90
59067;DHT22;44854;50.838;4.438;2022-12-07T09:12:17;6.60;99.90
59067;DHT22;44854;50.838;4.438;2022-12-07T09:14:42;6.80;99.90
59067;DHT22;44854;50.838;4.438;2022-12-07T09:17:09;6.90;99.90
59067;DHT22;44854;50.838;4.438;2022-12-07T09:19:35;6.90;99.90
59067;DHT22;44854;50.838;4.438;2022-12-07T09:22:00;7.00;99.90
59067;DHT22;44854;50.838;4.438;2022-12-07T09:24:26;7.10;99.90
59067;DHT22;44854;50.838;4.438;2022-12-07T09:26:52;7.10;99.90
59067;DHT22;44854;50.838;4.438;2022-12-07T09:29:17;7.30;99.90
59067;DHT22;44854;50.838;4.438;2022-12-07T09:31:43;7.30;99.90
59067;DHT22;44854;50.838;4.438;2022-12-07T09:34:08;7.40;99.90
59067;DHT22;44854;50.838;4.438;2022-12-07T09:36:34;7.50;99.90
59067;DHT22;44854;50.838;4.438;2022-12-07T09:38:59;7.50;99.90
59067;DHT22;44854;50.838;4.438;2022-12-07T09:41:25;7.50;99.90
59067;DHT22;44854;50.838;4.438;2022-12-07T09:43:52;7.50;99.90
59067;DHT22;44854;50.838;4.438;2022-12-07T09:46:18;7.60;99.90
59067;DHT22;44854;50.838;4.438;2022-12-07T09:48:45;7.70;99.90
59067;DHT22;44854;50.838;4.438;2022-12-07T09:51:16;7.70;99.90
59067;DHT22;44854;50.838;4.438;2022-12-07T09:53:42;7.80;99.90
59067;DHT22;44854;50.838;4.438;2022-12-07T09:56:09;7.90;99.90
59067;DHT22;44854;50.838;4.438;2022-12-07T09:58:37;7.80;99.90
59067;DHT22;44854;50.838;4.438;2022-12-07T10:01:11;7.80;99.90
59067;DHT22;44854;50.838;4.438;2022-12-07T10:03:38;7.70;99.90
59067;DHT22;44854;50.838;4.438;2022-12-07T10:06:04;7.60;99.90
59067;DHT22;44854;50.838;4.438;2022-12-07T10:08:30;7.60;99.90
59067;DHT22;44854;50.838;4.438;2022-12-07T10:10:56;7.70;99.90
59067;DHT22;44854;50.838;4.438;2022-12-07T10:13:33;7.60;99.90
59067;DHT22;44854;50.838;4.438;2022-12-07T10:15:59;7.80;99.90
59067;DHT22;44854;50.838;4.438;2022-12-07T10:20:59;7.90;99.90
59067;DHT22;44854;50.838;4.438;2022-12-07T10:23:25;7.90;99.90
59067;DHT22;44854;50.838;4.438;2022-12-07T10:25:51;7.90;99.90
59067;DHT22;44854;50.838;4.438;2022-12-07T10:28:20;7.90;99.90
59067;DHT22;44854;50.838;4.438;2022-12-07T10:31:02;7.90;99.90
59067;DHT22;44854;50.838;4.438;2022-12-07T10:36:09;7.80;99.90
59067;DHT22;44854;50.838;4.438;2022-12-07T10:38:44;7.70;99.90
59067;DHT22;44854;50.838;4.438;2022-12-07T10:41:09;7.70;99.90
59067;DHT22;44854;50.838;4.438;2022-12-07T10:43:35;7.70;99.90
59067;DHT22;44854;50.838;4.438;2022-12-07T10:46:18;7.70;99.90
59067;DHT22;44854;50.838;4.438;2022-12-07T10:51:55;7.80;99.90
59067;DHT22;44854;50.838;4.438;2022-12-07T10:57:08;7.80;99.90
59067;DHT22;44854;50.838;4.438;2022-12-07T10:59:40;7.70;99.90
59067;DHT22;44854;50.838;4.438;2022-12-07T11:02:19;7.60;99.90
59067;DHT22;44854;50.838;4.438;2022-12-07T11:10:13;7.60;99.90
59067;DHT22;44854;50.838;4.438;2022-12-07T11:17:53;7.70;99.90
59067;DHT22;44854;50.838;4.438;2022-12-07T11:22:59;7.60;99.90
59067;DHT22;44854;50.838;4.438;2022-12-07T11:25:34;7.60;99.90
59067;DHT22;44854;50.838;4.438;2022-12-07T11:30:38;7.60;99.90
59067;DHT22;44854;50.838;4.438;2022-12-07T11:33:17;7.60;99.90
59067;DHT22;44854;50.838;4.438;2022-12-07T11:35:54;7.50;99.90
59067;DHT22;44854;50.838;4.438;2022-12-07T11:38:24;7.50;99.90
59067;DHT22;44854;50.838;4.438;2022-12-07T11:40:53;7.60;99.90
59067;DHT22;44854;50.838;4.438;2022-12-07T11:43:22;7.40;99.90
59067;DHT22;44854;50.838;4.438;2022-12-07T11:46:12;7.50;99.90
59067;DHT22;44854;50.838;4.438;2022-12-07T11:51:06;7.50;99.90
59067;DHT22;44854;50.838;4.438;2022-12-07T11:56:17;7.50;99.90
59067;DHT22;44854;50.838;4.438;2022-12-07T12:06:39;7.60;99.90
59067;DHT22;44854;50.838;4.438;2022-12-07T12:21:53;7.70;99.90
59067;DHT22;44854;50.838;4.438;2022-12-07T12:24:24;7.80;99.90
59067;DHT22;44854;50.838;4.438;2022-12-07T12:26:51;7.90;99.90
59067;DHT22;44854;50.838;4.438;2022-12-07T12:29:19;7.90;99.90
59067;DHT22;44854;50.838;4.438;2022-12-07T12:31:47;7.80;99.90
59067;DHT22;44854;50.838;4.438;2022-12-07T12:34:37;7.90;99.90
59067;DHT22;44854;50.838;4.438;2022-12-07T12:37:07;7.90;99.90
59067;DHT22;44854;50.838;4.438;2022-12-07T12:39:38;7.80;99.90
59067;DHT22;44854;50.838;4.438;2022-12-07T12:42:05;7.90;99.90
59067;DHT22;44854;50.838;4.438;2022-12-07T12:45:02;7.80;99.90
59067;DHT22;44854;50.838;4.438;2022-12-07T12:47:41;7.90;99.90
59067;DHT22;44854;50.838;4.438;2022-12-07T12:50:11;7.90;99.90
59067;DHT22;44854;50.838;4.438;2022-12-07T12:57:33;7.90;99.90
59067;DHT22;44854;50.838;4.438;2022-12-07T12:59:59;8.00;99.90
59067;DHT22;44854;50.838;4.438;2022-12-07T13:04:55;8.10;99.90
59067;DHT22;44854;50.838;4.438;2022-12-07T13:10:15;8.20;99.90
59067;DHT22;44854;50.838;4.438;2022-12-07T13:12:55;8.20;99.90
59067;DHT22;44854;50.838;4.438;2022-12-07T13:26:22;8.30;99.90
59067;DHT22;44854;50.838;4.438;2022-12-07T13:28:49;8.20;99.90
59067;DHT22;44854;50.838;4.438;2022-12-07T13:31:23;8.20;99.90
59067;DHT22;44854;50.838;4.438;2022-12-07T13:33:51;8.30;99.90
59067;DHT22;44854;50.838;4.438;2022-12-07T13:36:23;8.30;99.90
59067;DHT22;44854;50.838;4.438;2022-12-07T13:38:50;8.30;99.90
59067;DHT22;44854;50.838;4.438;2022-12-07T13:41:17;8.10;99.90
59067;DHT22;44854;50.838;4.438;2022-12-07T13:49:18;8.10;99.90
59067;DHT22;44854;50.838;4.438;2022-12-07T13:51:44;8.10;99.90
59067;DHT22;44854;50.838;4.438;2022-12-07T13:54:10;8.30;99.90
59067;DHT22;44854;50.838;4.438;2022-12-07T13:56:36;8.20;99.90
59067;DHT22;44854;50.838;4.438;2022-12-07T13:59:04;8.10;99.90
59067;DHT22;44854;50.838;4.438;2022-12-07T14:01:30;8.20;99.90
59067;DHT22;44854;50.838;4.438;2022-12-07T14:04:15;8.20;99.90
59067;DHT22;44854;50.838;4.438;2022-12-07T14:06:50;8.20;99.90
59067;DHT22;44854;50.838;4.438;2022-12-07T14:09:17;8.40;99.90
59067;DHT22;44854;50.838;4.438;2022-12-07T14:11:43;8.30;99.90
59067;DHT22;44854;50.838;4.438;2022-12-07T14:14:13;8.20;99.90
59067;DHT22;44854;50.838;4.438;2022-12-07T14:16:40;8.10;99.90
59067;DHT22;44854;50.838;4.438;2022-12-07T14:19:40;7.90;99.90
59067;DHT22;44854;50.838;4.438;2022-12-07T14:22:05;7.60;99.90
59067;DHT22;44854;50.838;4.438;2022-12-07T14:24:33;7.60;99.90
59067;DHT22;44854;50.838;4.438;2022-12-07T14:27:15;7.50;99.90
59067;DHT22;44854;50.838;4.438;2022-12-07T14:29:41;7.50;99.90
59067;DHT22;44854;50.838;4.438;2022-12-07T14:34:41;7.20;99.90
59067;DHT22;44854;50.838;4.438;2022-12-07T14:37:08;7.10;99.90
59067;DHT22;44854;50.838;4.438;2022-12-07T14:39:34;7.10;99.90
59067;DHT22;44854;50.838;4.438;2022-12-07T14:41:59;7.10;99.90
59067;DHT22;44854;50.838;4.438;2022-12-07T14:44:25;7.10;99.90
59067;DHT22;44854;50.838;4.438;2022-12-07T14:46:50;7.20;99.90
59067;DHT22;44854;50.838;4.438;2022-12-07T14:49:16;7.20;99.90
59067;DHT22;44854;50.838;4.438;2022-12-07T14:51:42;7.20;99.90
59067;DHT22;44854;50.838;4.438;2022-12-07T14:54:16;7.20;99.90
59067;DHT22;44854;50.838;4.438;2022-12-07T14:56:42;7.10;99.90
59067;DHT22;44854;50.838;4.438;2022-12-07T14:59:09;7.20;99.90
59067;DHT22;44854;50.838;4.438;2022-12-07T15:01:35;7.40;99.90
59067;DHT22;44854;50.838;4.438;2022-12-07T15:04:01;7.40;99.90
59067;DHT22;44854;50.838;4.438;2022-12-07T15:06:26;7.40;99.90
59067;DHT22;44854;50.838;4.438;2022-12-07T15:08:52;7.40;99.90
59067;DHT22;44854;50.838;4.438;2022-12-07T15:11:17;7.40;99.90
59067;DHT22;44854;50.838;4.438;2022-12-07T15:13:43;7.40;99.90
59067;DHT22;44854;50.838;4.438;2022-12-07T15:16:27;7.40;99.90
59067;DHT22;44854;50.838;4.438;2022-12-07T15:18:53;7.40;99.90
59067;DHT22;44854;50.838;4.438;2022-12-07T15:21:19;7.30;99.90
59067;DHT22;44854;50.838;4.438;2022-12-07T15:23:46;7.40;99.90
59067;DHT22;44854;50.838;4.438;2022-12-07T15:26:11;7.50;99.90
59067;DHT22;44854;50.838;4.438;2022-12-07T15:28:37;7.30;99.90
59067;DHT22;44854;50.838;4.438;2022-12-07T15:31:03;7.40;99.90
59067;DHT22;44854;50.838;4.438;2022-12-07T15:33:28;7.40;99.90
59067;DHT22;44854;50.838;4.438;2022-12-07T15:35:54;7.40;99.90
59067;DHT22;44854;50.838;4.438;2022-12-07T15:38:19;7.40;99.90
59067;DHT22;44854;50.838;4.438;2022-12-07T15:40:48;7.50;99.90
59067;DHT22;44854;50.838;4.438;2022-12-07T15:43:13;7.50;99.90
59067;DHT22;44854;50.838;4.438;2022-12-07T15:45:58;7.40;99.90
59067;DHT22;44854;50.838;4.438;2022-12-07T15:48:24;7.30;99.90
59067;DHT22;44854;50.838;4.438;2022-12-07T15:50:50;7.30;99.90
59067;DHT22;44854;50.838;4.438;2022-12-07T15:53:15;7.30;99.90
59067;DHT22;44854;50.838;4.438;2022-12-07T15:55:41;7.30;99.90
59067;DHT22;44854;50.838;4.438;2022-12-07T15:58:07;7.20;99.90
59067;DHT22;44854;50.838;4.438;2022-12-07T16:00:32;7.20;99.90
59067;DHT22;44854;50.838;4.438;2022-12-07T16:02:58;7.10;99.90
59067;DHT22;44854;50.838;4.438;2022-12-07T16:05:23;7.10;99.90
59067;DHT22;44854;50.838;4.438;2022-12-07T16:07:49;7.10;99.90
59067;DHT22;44854;50.838;4.438;2022-12-07T16:10:14;7.20;99.90
59067;DHT22;44854;50.838;4.438;2022-12-07T16:12:40;7.10;99.90
59067;DHT22;44854;50.838;4.438;2022-12-07T16:15:06;7.30;99.90
59067;DHT22;44854;50.838;4.438;2022-12-07T16:17:31;7.30;99.90
59067;DHT22;44854;50.838;4.438;2022-12-07T16:19:57;7.30;99.90
59067;DHT22;44854;50.838;4.438;2022-12-07T16:22:23;7.40;99.90
59067;DHT22;44854;50.838;4.438;2022-12-07T16:24:49;7.40;99.90
59067;DHT22;44854;50.838;4.438;2022-12-07T16:27:14;7.30;99.90
59067;DHT22;44854;50.838;4.438;2022-12-07T16:29:40;7.40;99.90
59067;DHT22;44854;50.838;4.438;2022-12-07T16:32:05;7.30;99.90
59067;DHT22;44854;50.838;4.438;2022-12-07T16:34:31;7.40;99.90
59067;DHT22;44854;50.838;4.438;2022-12-07T16:36:56;7.30;99.90
59067;DHT22;44854;50.838;4.438;2022-12-07T16:39:22;7.30;99.90
59067;DHT22;44854;50.838;4.438;2022-12-07T16:41:48;7.30;99.90
59067;DHT22;44854;50.838;4.438;2022-12-07T16:44:15;7.40;99.90
59067;DHT22;44854;50.838;4.438;2022-12-07T16:46:41;7.30;99.90
59067;DHT22;44854;50.838;4.438;2022-12-07T16:49:10;7.30;99.90
59067;DHT22;44854;50.838;4.438;2022-12-07T16:51:36;7.30;99.90
59067;DHT22;44854;50.838;4.438;2022-12-07T16:54:02;7.20;99.90
59067;DHT22;44854;50.838;4.438;2022-12-07T16:56:28;7.20;99.90
59067;DHT22;44854;50.838;4.438;2022-12-07T16:58:54;7.20;99.90
59067;DHT22;44854;50.838;4.438;2022-12-07T17:01:20;7.20;99.90
59067;DHT22;44854;50.838;4.438;2022-12-07T17:03:54;7.30;99.90
59067;DHT22;44854;50.838;4.438;2022-12-07T17:06:20;7.30;99.90
59067;DHT22;44854;50.838;4.438;2022-12-07T17:08:47;7.30;99.90
59067;DHT22;44854;50.838;4.438;2022-12-07T17:11:14;7.20;99.90
59067;DHT22;44854;50.838;4.438;2022-12-07T17:13:39;7.30;99.90
59067;DHT22;44854;50.838;4.438;2022-12-07T17:16:23;7.20;99.90
59067;DHT22;44854;50.838;4.438;2022-12-07T17:18:49;7.20;99.90
59067;DHT22;44854;50.838;4.438;2022-12-07T17:21:14;7.30;99.90
59067;DHT22;44854;50.838;4.438;2022-12-07T17:23:40;7.30;99.90
59067;DHT22;44854;50.838;4.438;2022-12-07T17:26:10;7.30;99.90
59067;DHT22;44854;50.838;4.438;2022-12-07T17:28:36;7.30;99.90
59067;DHT22;44854;50.838;4.438;2022-12-07T17:31:04;7.20;99.90
59067;DHT22;44854;50.838;4.438;2022-12-07T17:33:30;7.20;99.90
59067;DHT22;44854;50.838;4.438;2022-12-07T17:35:56;7.20;99.90
59067;DHT22;44854;50.838;4.438;2022-12-07T17:38:21;7.20;99.90
59067;DHT22;44854;50.838;4.438;2022-12-07T17:40:47;7.30;99.90
59067;DHT22;44854;50.838;4.438;2022-12-07T17:43:13;7.10;99.90
59067;DHT22;44854;50.838;4.438;2022-12-07T17:45:38;7.00;99.90
59067;DHT22;44854;50.838;4.438;2022-12-07T17:48:04;7.10;99.90
59067;DHT22;44854;50.838;4.438;2022-12-07T17:50:32;7.10;99.90
59067;DHT22;44854;50.838;4.438;2022-12-07T17:53:17;7.10;99.90
59067;DHT22;44854;50.838;4.438;2022-12-07T17:55:42;7.00;99.90
59067;DHT22;44854;50.838;4.438;2022-12-07T17:58:08;7.20;99.90
59067;DHT22;44854;50.838;4.438;2022-12-07T18:00:33;7.20;99.90
59067;DHT22;44854;50.838;4.438;2022-12-07T18:03:03;7.20;99.90
59067;DHT22;44854;50.838;4.438;2022-12-07T18:05:29;7.20;99.90
59067;DHT22;44854;50.838;4.438;2022-12-07T18:07:55;7.20;99.90
59067;DHT22;44854;50.838;4.438;2022-12-07T18:10:20;7.20;99.90
59067;DHT22;44854;50.838;4.438;2022-12-07T18:12:46;7.10;99.90
59067;DHT22;44854;50.838;4.438;2022-12-07T18:15:11;7.00;99.90
59067;DHT22;44854;50.838;4.438;2022-12-07T18:17:37;6.90;99.90
59067;DHT22;44854;50.838;4.438;2022-12-07T18:20:03;6.90;99.90
59067;DHT22;44854;50.838;4.438;2022-12-07T18:22:28;7.00;99.90
59067;DHT22;44854;50.838;4.438;2022-12-07T18:24:54;7.00;99.90
59067;DHT22;44854;50.838;4.438;2022-12-07T18:27:19;7.00;99.90
59067;DHT22;44854;50.838;4.438;2022-12-07T18:29:45;6.90;99.90
59067;DHT22;44854;50.838;4.438;2022-12-07T18:32:10;6.90;99.90
59067;DHT22;44854;50.838;4.438;2022-12-07T18:34:36;6.90;99.90
59067;DHT22;44854;50.838;4.438;2022-12-07T18:37:01;6.90;99.90
59067;DHT22;44854;50.838;4.438;2022-12-07T18:39:27;6.90;99.90
59067;DHT22;44854;50.838;4.438;2022-12-07T18:41:53;6.90;99.90
59067;DHT22;44854;50.838;4.438;2022-12-07T18:44:18;6.80;99.90
59067;DHT22;44854;50.838;4.438;2022-12-07T18:46:44;6.80;99.90
59067;DHT22;44854;50.838;4.438;2022-12-07T18:49:13;6.80;99.90
59067;DHT22;44854;50.838;4.438;2022-12-07T18:51:39;6.60;99.90
59067;DHT22;44854;50.838;4.438;2022-12-07T18:54:04;6.70;99.90
59067;DHT22;44854;50.838;4.438;2022-12-07T18:56:30;6.70;99.90
59067;DHT22;44854;50.838;4.438;2022-12-07T18:58:57;6.70;99.90
59067;DHT22;44854;50.838;4.438;2022-12-07T19:01:42;6.70;99.90
59067;DHT22;44854;50.838;4.438;2022-12-07T19:04:07;6.60;99.90
59067;DHT22;44854;50.838;4.438;2022-12-07T19:06:33;6.60;99.90
59067;DHT22;44854;50.838;4.438;2022-12-07T19:08:59;6.50;99.90
59067;DHT22;44854;50.838;4.438;2022-12-07T19:11:26;6.60;99.90
59067;DHT22;44854;50.838;4.438;2022-12-07T19:14:10;6.60;99.90
59067;DHT22;44854;50.838;4.438;2022-12-07T19:16:36;6.50;99.90
59067;DHT22;44854;50.838;4.438;2022-12-07T19:19:02;6.60;99.90
59067;DHT22;44854;50.838;4.438;2022-12-07T19:21:28;6.50;99.90
59067;DHT22;44854;50.838;4.438;2022-12-07T19:23:53;6.50;99.90
59067;DHT22;44854;50.838;4.438;2022-12-07T19:26:19;6.40;99.90
59067;DHT22;44854;50.838;4.438;2022-12-07T19:28:45;6.50;99.90
59067;DHT22;44854;50.838;4.438;2022-12-07T19:31:10;6.40;99.90
59067;DHT22;44854;50.838;4.438;2022-12-07T19:33:36;6.40;99.90
59067;DHT22;44854;50.838;4.438;2022-12-07T19:36:02;6.40;99.90
59067;DHT22;44854;50.838;4.438;2022-12-07T19:38:29;6.30;99.90
59067;DHT22;44854;50.838;4.438;2022-12-07T19:40:54;6.20;99.90
59067;DHT22;44854;50.838;4.438;2022-12-07T19:43:20;6.20;99.90
59067;DHT22;44854;50.838;4.438;2022-12-07T19:45:45;6.20;99.90
59067;DHT22;44854;50.838;4.438;2022-12-07T19:48:11;6.30;99.90
59067;DHT22;44854;50.838;4.438;2022-12-07T19:50:36;6.30;99.90
59067;DHT22;44854;50.838;4.438;2022-12-07T19:53:02;6.20;99.90
59067;DHT22;44854;50.838;4.438;2022-12-07T19:55:28;6.30;99.90
59067;DHT22;44854;50.838;4.438;2022-12-07T19:57:53;6.20;99.90
59067;DHT22;44854;50.838;4.438;2022-12-07T20:00:19;6.20;99.90
59067;DHT22;44854;50.838;4.438;2022-12-07T20:02:44;6.30;99.90
59067;DHT22;44854;50.838;4.438;2022-12-07T20:05:10;6.20;99.90
59067;DHT22;44854;50.838;4.438;2022-12-07T20:07:36;6.20;99.90
59067;DHT22;44854;50.838;4.438;2022-12-07T20:10:04;6.20;99.90
59067;DHT22;44854;50.838;4.438;2022-12-07T20:12:30;6.10;99.90
59067;DHT22;44854;50.838;4.438;2022-12-07T20:15:14;6.00;99.90
59067;DHT22;44854;50.838;4.438;2022-12-07T20:17:40;6.00;99.90
59067;DHT22;44854;50.838;4.438;2022-12-07T20:20:05;6.00;99.90
59067;DHT22;44854;50.838;4.438;2022-12-07T20:22:31;5.90;99.90
59067;DHT22;44854;50.838;4.438;2022-12-07T20:24:57;5.90;99.90
59067;DHT22;44854;50.838;4.438;2022-12-07T20:27:22;6.00;99.90
59067;DHT22;44854;50.838;4.438;2022-12-07T20:29:48;6.00;99.90
59067;DHT22;44854;50.838;4.438;2022-12-07T20:32:14;6.00;99.90
59067;DHT22;44854;50.838;4.438;2022-12-07T20:34:40;6.00;99.90
59067;DHT22;44854;50.838;4.438;2022-12-07T20:37:06;6.00;99.90
59067;DHT22;44854;50.838;4.438;2022-12-07T20:39:31;6.00;99.90
59067;DHT22;44854;50.838;4.438;2022-12-07T20:41:58;6.00;99.90
59067;DHT22;44854;50.838;4.438;2022-12-07T20:44:41;5.90;99.90
59067;DHT22;44854;50.838;4.438;2022-12-07T20:47:07;5.90;99.90
59067;DHT22;44854;50.838;4.438;2022-12-07T20:49:33;5.90;99.90
59067;DHT22;44854;50.838;4.438;2022-12-07T20:51:58;5.90;99.90
59067;DHT22;44854;50.838;4.438;2022-12-07T20:54:24;5.80;99.90
59067;DHT22;44854;50.838;4.438;2022-12-07T20:56:49;6.00;99.90
59067;DHT22;44854;50.838;4.438;2022-12-07T20:59:15;5.90;99.90
59067;DHT22;44854;50.838;4.438;2022-12-07T21:01:41;5.90;99.90
59067;DHT22;44854;50.838;4.438;2022-12-07T21:04:07;5.80;99.90
59067;DHT22;44854;50.838;4.438;2022-12-07T21:06:32;5.70;99.90
59067;DHT22;44854;50.838;4.438;2022-12-07T21:08:58;5.80;99.90
59067;DHT22;44854;50.838;4.438;2022-12-07T21:11:25;5.80;99.90
59067;DHT22;44854;50.838;4.438;2022-12-07T21:13:51;5.80;99.90
59067;DHT22;44854;50.838;4.438;2022-12-07T21:16:18;5.80;99.90
59067;DHT22;44854;50.838;4.438;2022-12-07T21:18:44;5.80;99.90
59067;DHT22;44854;50.838;4.438;2022-12-07T21:21:12;5.80;99.90
59067;DHT22;44854;50.838;4.438;2022-12-07T21:23:40;5.90;99.90
59067;DHT22;44854;50.838;4.438;2022-12-07T21:26:12;5.90;99.90
59067;DHT22;44854;50.838;4.438;2022-12-07T21:28:39;6.00;99.90
59067;DHT22;44854;50.838;4.438;2022-12-07T21:31:05;5.90;99.90
59067;DHT22;44854;50.838;4.438;2022-12-07T21:33:33;5.90;99.90
59067;DHT22;44854;50.838;4.438;2022-12-07T21:36:04;6.10;99.90
59067;DHT22;44854;50.838;4.438;2022-12-07T21:38:30;6.20;99.90
59067;DHT22;44854;50.838;4.438;2022-12-07T21:40:56;6.20;99.90
59067;DHT22;44854;50.838;4.438;2022-12-07T21:43:21;6.00;99.90
59067;DHT22;44854;50.838;4.438;2022-12-07T21:45:50;6.10;99.90
59067;DHT22;44854;50.838;4.438;2022-12-07T21:48:16;6.10;99.90
59067;DHT22;44854;50.838;4.438;2022-12-07T21:50:41;6.10;99.90
59067;DHT22;44854;50.838;4.438;2022-12-07T21:53:07;6.20;99.90
59067;DHT22;44854;50.838;4.438;2022-12-07T21:55:33;6.20;99.90
59067;DHT22;44854;50.838;4.438;2022-12-07T21:57:59;6.10;99.90
59067;DHT22;44854;50.838;4.438;2022-12-07T22:00:24;6.10;99.90
59067;DHT22;44854;50.838;4.438;2022-12-07T22:02:52;6.20;99.90
59067;DHT22;44854;50.838;4.438;2022-12-07T22:05:18;6.20;99.90
59067;DHT22;44854;50.838;4.438;2022-12-07T22:07:43;6.20;99.90
59067;DHT22;44854;50.838;4.438;2022-12-07T22:10:09;6.10;99.90
59067;DHT22;44854;50.838;4.438;2022-12-07T22:12:34;5.90;99.90
59067;DHT22;44854;50.838;4.438;2022-12-07T22:15:00;6.00;99.90
59067;DHT22;44854;50.838;4.438;2022-12-07T22:17:31;6.00;99.90
59067;DHT22;44854;50.838;4.438;2022-12-07T22:19:57;5.90;99.90
59067;DHT22;44854;50.838;4.438;2022-12-07T22:22:23;6.00;99.90
59067;DHT22;44854;50.838;4.438;2022-12-07T22:24:49;6.10;99.90
59067;DHT22;44854;50.838;4.438;2022-12-07T22:27:15;6.10;99.90
59067;DHT22;44854;50.838;4.438;2022-12-07T22:29:41;6.00;99.90
59067;DHT22;44854;50.838;4.438;2022-12-07T22:32:07;6.10;99.90
59067;DHT22;44854;50.838;4.438;2022-12-07T22:34:32;6.10;99.90
59067;DHT22;44854;50.838;4.438;2022-12-07T22:36:58;6.10;99.90
59067;DHT22;44854;50.838;4.438;2022-12-07T22:39:24;6.20;99.90
59067;DHT22;44854;50.838;4.438;2022-12-07T22:41:49;6.30;99.90
59067;DHT22;44854;50.838;4.438;2022-12-07T22:44:15;6.30;99.90
59067;DHT22;44854;50.838;4.438;2022-12-07T22:46:40;6.20;99.90
59067;DHT22;44854;50.838;4.438;2022-12-07T22:49:06;6.20;99.90
59067;DHT22;44854;50.838;4.438;2022-12-07T22:51:32;6.30;99.90
59067;DHT22;44854;50.838;4.438;2022-12-07T22:53:59;6.30;99.90
59067;DHT22;44854;50.838;4.438;2022-12-07T22:56:25;6.30;99.90
59067;DHT22;44854;50.838;4.438;2022-12-07T22:58:50;6.20;99.90
59067;DHT22;44854;50.838;4.438;2022-12-07T23:01:16;6.50;99.90
59067;DHT22;44854;50.838;4.438;2022-12-07T23:03:42;6.40;99.90
59067;DHT22;44854;50.838;4.438;2022-12-07T23:06:09;6.40;99.90
59067;DHT22;44854;50.838;4.438;2022-12-07T23:08:35;6.40;99.90
59067;DHT22;44854;50.838;4.438;2022-12-07T23:11:01;6.40;99.90
59067;DHT22;44854;50.838;4.438;2022-12-07T23:13:27;6.30;99.90
59067;DHT22;44854;50.838;4.438;2022-12-07T23:16:12;6.20;99.90
59067;DHT22;44854;50.838;4.438;2022-12-07T23:18:39;6.20;99.90
